Time;durP1;ratioP1;P1;durP2;ratioP2;P2;SDS_P1;SDS_P2;PMS_P1;PMS_P2;Temp;Humidity;BMP_temperature;BMP_pressure;BME280_temperature;BME280_humidity;BME280_pressure;Samples;Min_cycle;Max_cycle;Signal;HPM_P1;HPM_P2
2023/08/26 00:00:30;;;;;;;8.40;4.20;;;19.70;99.90;;;;;;5032833;28;20602;-81
2023/08/26 00:02:56;;;;;;;5.40;3.75;;;19.60;99.90;;;;;;5034225;28;20365;-80
2023/08/26 00:05:22;;;;;;;8.02;3.75;;;19.60;99.90;;;;;;5031339;28;20025;-80
2023/08/26 00:07:48;;;;;;;8.63;3.63;;;19.50;99.90;;;;;;5033264;28;20018;-80
2023/08/26 00:10:13;;;;;;;8.63;3.10;;;19.50;99.90;;;;;;5032138;28;20037;-80
2023/08/26 00:12:39;;;;;;;10.07;2.95;;;19.50;99.90;;;;;;5030609;28;20028;-80
2023/08/26 00:15:06;;;;;;;7.38;3.17;;;19.50;99.90;;;;;;5034221;28;20104;-80
2023/08/26 00:17:34;;;;;;;4.25;3.08;;;19.40;99.90;;;;;;5033157;28;20025;-81
2023/08/26 00:20:00;;;;;;;8.98;3.10;;;19.40;99.90;;;;;;5027065;28;20029;-80
2023/08/26 00:22:26;;;;;;;4.82;2.80;;;19.30;99.90;;;;;;5027365;28;20117;-81
2023/08/26 00:24:52;;;;;;;6.63;3.00;;;19.30;99.90;;;;;;5011584;28;20454;-80
2023/08/26 00:27:17;;;;;;;7.18;2.72;;;19.30;99.90;;;;;;5011599;28;20025;-80
2023/08/26 00:29:43;;;;;;;8.18;2.95;;;19.30;99.90;;;;;;5012121;28;20022;-80
2023/08/26 00:32:09;;;;;;;7.82;2.83;;;19.30;99.90;;;;;;5013290;28;20504;-80
2023/08/26 00:34:35;;;;;;;9.00;2.75;;;19.20;99.90;;;;;;5028335;28;20468;-80
2023/08/26 00:37:00;;;;;;;6.72;3.00;;;19.20;99.90;;;;;;5012567;28;20033;-80
2023/08/26 00:39:26;;;;;;;8.30;2.97;;;19.10;99.90;;;;;;5019045;28;20083;-80
2023/08/26 00:41:52;;;;;;;7.75;2.97;;;19.00;99.90;;;;;;5030787;28;20124;-80
2023/08/26 00:44:18;;;;;;;8.98;2.80;;;18.90;99.90;;;;;;5031314;28;20125;-80
2023/08/26 00:46:44;;;;;;;7.55;2.92;;;18.90;99.90;;;;;;5029351;28;20025;-79
2023/08/26 00:49:09;;;;;;;6.18;2.45;;;18.90;99.90;;;;;;5036198;28;20092;-80
2023/08/26 00:51:36;;;;;;;5.07;2.58;;;18.80;99.90;;;;;;5047011;28;20502;-80
2023/08/26 00:54:04;;;;;;;5.90;2.90;;;18.80;99.90;;;;;;5032424;28;20041;-80
2023/08/26 00:56:31;;;;;;;5.93;2.47;;;18.70;99.90;;;;;;5032680;28;20025;-80
2023/08/26 00:58:56;;;;;;;4.38;2.28;;;18.50;99.90;;;;;;5047470;28;20483;-80
2023/08/26 01:01:26;;;;;;;8.27;2.63;;;18.50;99.90;;;;;;5032644;28;20040;-80
2023/08/26 01:03:52;;;;;;;5.82;2.60;;;18.50;99.90;;;;;;5031077;28;20025;-80
2023/08/26 01:06:17;;;;;;;6.82;2.15;;;18.50;99.90;;;;;;5028094;28;20057;-81
2023/08/26 01:08:43;;;;;;;8.63;2.70;;;18.50;99.90;;;;;;5015362;28;20052;-80
2023/08/26 01:11:35;;;;;;;8.13;2.30;;;18.50;99.90;;;;;;5022959;28;20022;-80
2023/08/26 01:14:26;;;;;;;7.15;2.25;;;18.50;99.90;;;;;;5019161;28;20037;-80
2023/08/26 01:16:52;;;;;;;7.57;2.92;;;18.50;99.90;;;;;;5031069;28;20139;-81
2023/08/26 01:19:40;;;;;;;8.90;2.40;;;18.40;99.90;;;;;;5030283;28;20092;-80
2023/08/26 01:22:08;;;;;;;6.38;2.70;;;18.40;99.90;;;;;;5028193;28;20049;-80
2023/08/26 01:24:34;;;;;;;7.28;2.40;;;18.40;99.90;;;;;;5012776;28;20518;-80
2023/08/26 01:27:00;;;;;;;8.07;2.70;;;18.40;99.90;;;;;;5011087;28;20029;-80
2023/08/26 01:29:26;;;;;;;6.80;2.70;;;18.40;99.90;;;;;;5022540;28;20411;-80
2023/08/26 01:32:05;;;;;;;5.70;2.30;;;18.30;99.90;;;;;;5032034;28;20037;-80
2023/08/26 01:34:32;;;;;;;4.65;2.17;;;18.30;99.90;;;;;;5030427;28;20035;-80
2023/08/26 01:37:00;;;;;;;5.70;2.63;;;18.30;99.90;;;;;;5031186;28;20145;-80
2023/08/26 01:39:27;;;;;;;8.40;2.67;;;18.30;99.90;;;;;;5046956;28;20029;-80
2023/08/26 01:41:54;;;;;;;6.70;2.20;;;18.30;99.90;;;;;;5031753;28;20034;-80
2023/08/26 01:44:21;;;;;;;6.22;2.40;;;18.30;99.90;;;;;;5031270;28;20490;-80
2023/08/26 01:46:47;;;;;;;8.40;2.80;;;18.20;99.90;;;;;;5029470;28;20029;-81
2023/08/26 01:49:14;;;;;;;6.18;2.45;;;18.20;99.90;;;;;;5036354;28;20021;-81
2023/08/26 01:51:40;;;;;;;6.38;2.30;;;18.20;99.90;;;;;;5051051;28;20033;-81
2023/08/26 01:54:06;;;;;;;8.15;2.90;;;18.10;99.90;;;;;;5035081;28;20022;-81
2023/08/26 01:56:33;;;;;;;8.50;2.65;;;18.10;99.90;;;;;;5031078;28;20369;-81
2023/08/26 01:58:58;;;;;;;8.90;3.08;;;18.00;99.90;;;;;;5014341;28;20026;-80
2023/08/26 02:01:24;;;;;;;5.80;2.90;;;18.00;99.90;;;;;;5033422;28;20032;-81
2023/08/26 02:03:50;;;;;;;5.60;2.85;;;18.00;99.90;;;;;;5035048;28;20029;-80
2023/08/26 02:06:16;;;;;;;5.38;2.92;;;17.90;99.90;;;;;;5035108;28;20101;-81
2023/08/26 02:08:41;;;;;;;11.15;2.92;;;17.90;99.90;;;;;;5033939;28;20064;-81
2023/08/26 02:11:09;;;;;;;8.70;3.10;;;17.90;99.90;;;;;;5035885;28;20032;-80
2023/08/26 02:13:36;;;;;;;9.45;3.55;;;17.80;99.90;;;;;;5033461;28;20025;-81
2023/08/26 02:16:02;;;;;;;9.25;3.70;;;17.80;99.90;;;;;;5033278;28;20079;-81
2023/08/26 02:18:27;;;;;;;9.73;3.85;;;17.70;99.90;;;;;;5050296;28;20029;-81
2023/08/26 02:20:53;;;;;;;8.60;3.67;;;17.70;99.90;;;;;;5034506;28;20040;-81
2023/08/26 02:23:19;;;;;;;5.22;3.08;;;17.70;99.90;;;;;;5036601;28;20025;-81
2023/08/26 02:25:45;;;;;;;6.63;3.00;;;17.70;99.90;;;;;;5034380;28;20021;-80
2023/08/26 02:28:11;;;;;;;6.80;3.17;;;17.70;99.90;;;;;;5036376;28;20025;-81
2023/08/26 02:30:37;;;;;;;7.47;3.40;;;17.70;99.90;;;;;;5033159;28;20044;-81
2023/08/26 02:33:03;;;;;;;8.93;3.13;;;17.60;99.90;;;;;;5036527;28;20021;-81
2023/08/26 02:35:30;;;;;;;7.05;3.20;;;17.60;99.90;;;;;;5033261;28;20809;-81
2023/08/26 02:37:56;;;;;;;8.15;3.55;;;17.60;99.90;;;;;;5035008;28;20492;-81
2023/08/26 02:40:22;;;;;;;7.45;3.17;;;17.60;99.90;;;;;;5036016;28;20036;-81
2023/08/26 02:42:47;;;;;;;9.48;3.78;;;17.50;99.90;;;;;;5034199;28;20120;-81
2023/08/26 02:45:13;;;;;;;6.25;3.25;;;17.50;99.90;;;;;;5031241;28;20440;-81
2023/08/26 02:47:39;;;;;;;4.95;3.25;;;17.50;99.90;;;;;;5034709;28;20022;-81
2023/08/26 02:50:05;;;;;;;7.45;3.67;;;17.40;99.90;;;;;;5035311;28;20061;-81
2023/08/26 02:52:31;;;;;;;8.65;3.03;;;17.40;99.90;;;;;;5034384;28;20364;-81
2023/08/26 02:54:57;;;;;;;10.75;3.83;;;17.40;99.90;;;;;;5034673;28;20030;-81
2023/08/26 02:57:22;;;;;;;8.55;3.92;;;17.40;99.90;;;;;;5030675;28;20061;-81
2023/08/26 02:59:49;;;;;;;7.13;4.07;;;17.40;99.90;;;;;;5015916;28;20037;-81
2023/08/26 03:02:15;;;;;;;7.75;3.42;;;17.30;99.90;;;;;;5033295;28;20052;-81
2023/08/26 03:04:45;;;;;;;6.45;3.17;;;17.30;99.90;;;;;;5033777;28;20022;-81
2023/08/26 03:07:11;;;;;;;6.30;3.35;;;17.20;99.90;;;;;;5032699;28;20029;-81
2023/08/26 03:09:37;;;;;;;6.45;3.08;;;17.20;99.90;;;;;;5033951;28;20033;-81
2023/08/26 03:12:03;;;;;;;4.32;3.40;;;17.20;99.90;;;;;;5032164;28;20573;-81
2023/08/26 03:14:29;;;;;;;8.52;3.80;;;17.10;99.90;;;;;;5033304;28;20426;-81
2023/08/26 03:16:54;;;;;;;8.25;3.50;;;17.10;99.90;;;;;;5034948;28;20031;-81
2023/08/26 03:19:21;;;;;;;11.18;3.53;;;17.10;99.90;;;;;;5032887;28;20526;-81
2023/08/26 03:21:47;;;;;;;10.07;3.63;;;17.00;99.90;;;;;;5033754;28;20435;-82
2023/08/26 03:24:17;;;;;;;6.90;3.85;;;16.90;99.90;;;;;;5030488;28;20088;-81
2023/08/26 03:26:44;;;;;;;9.23;3.63;;;16.80;99.90;;;;;;5031051;28;20021;-82
2023/08/26 03:29:10;;;;;;;7.30;3.97;;;16.80;99.90;;;;;;5030611;28;20496;-82
2023/08/26 03:31:38;;;;;;;9.20;3.65;;;16.70;99.90;;;;;;5030667;28;20083;-81
2023/08/26 03:34:03;;;;;;;9.38;4.10;;;16.70;99.90;;;;;;5030136;28;20116;-81
2023/08/26 03:36:31;;;;;;;7.57;3.70;;;16.80;99.90;;;;;;5030532;28;20125;-83
2023/08/26 03:38:56;;;;;;;10.20;3.60;;;16.80;99.90;;;;;;5014481;28;20037;-82
2023/08/26 03:41:22;;;;;;;12.45;3.78;;;16.80;99.90;;;;;;5029756;28;20048;-82
2023/08/26 03:43:48;;;;;;;7.60;4.07;;;16.80;99.90;;;;;;5013983;28;20030;-82
2023/08/26 03:46:14;;;;;;;10.40;3.88;;;16.80;99.90;;;;;;5030661;28;20026;-81
2023/08/26 03:48:39;;;;;;;12.15;4.28;;;16.70;99.90;;;;;;5014980;28;20021;-83
2023/08/26 03:51:05;;;;;;;7.38;3.65;;;16.70;99.90;;;;;;5030137;28;20098;-82
2023/08/26 03:53:32;;;;;;;10.23;3.75;;;16.70;99.90;;;;;;5029917;28;20507;-81
2023/08/26 03:55:58;;;;;;;7.60;3.92;;;16.70;99.90;;;;;;5018374;28;20025;-82
2023/08/26 03:58:26;;;;;;;7.90;4.03;;;16.70;99.90;;;;;;5033599;28;20111;-82
2023/08/26 04:01:02;;;;;;;8.95;3.60;;;16.70;99.90;;;;;;5033340;28;20041;-81
2023/08/26 04:03:27;;;;;;;9.00;4.60;;;16.70;99.90;;;;;;5032223;28;20511;-82
2023/08/26 04:06:00;;;;;;;10.95;4.53;;;16.70;99.90;;;;;;5032484;28;20116;-82
2023/08/26 04:08:27;;;;;;;10.98;4.63;;;16.70;99.90;;;;;;5032935;28;20491;-82
2023/08/26 04:10:57;;;;;;;10.88;4.47;;;16.70;99.90;;;;;;5032480;28;20102;-81
2023/08/26 04:13:25;;;;;;;13.15;4.95;;;16.70;99.90;;;;;;5032492;28;20025;-82
2023/08/26 04:15:56;;;;;;;13.38;4.80;;;16.60;99.90;;;;;;5033017;28;20029;-81
2023/08/26 04:18:22;;;;;;;10.93;4.40;;;16.50;99.90;;;;;;5032583;28;20031;-81
2023/08/26 04:20:49;;;;;;;9.40;4.88;;;16.60;99.90;;;;;;5032949;28;20029;-81
2023/08/26 04:23:15;;;;;;;10.80;3.95;;;16.60;99.90;;;;;;5032891;28;20029;-82
2023/08/26 04:25:41;;;;;;;12.73;4.57;;;16.70;99.90;;;;;;5033065;28;20040;-81
2023/08/26 04:28:07;;;;;;;11.25;4.35;;;16.70;99.90;;;;;;5032829;28;20021;-81
2023/08/26 04:30:34;;;;;;;11.13;4.03;;;16.70;99.90;;;;;;5028415;28;20058;-82
2023/08/26 04:33:04;;;;;;;10.63;4.70;;;16.70;99.90;;;;;;5028810;28;20036;-82
2023/08/26 04:35:30;;;;;;;10.23;4.45;;;16.70;99.90;;;;;;5014145;28;20030;-81
2023/08/26 04:37:56;;;;;;;9.68;4.82;;;16.70;99.90;;;;;;5039538;28;20033;-81
2023/08/26 04:40:22;;;;;;;11.13;4.07;;;16.70;99.90;;;;;;5032520;28;20031;-81
2023/08/26 04:42:48;;;;;;;12.27;4.20;;;16.70;99.90;;;;;;5031986;28;20036;-82
2023/08/26 04:45:16;;;;;;;11.90;4.45;;;16.70;99.90;;;;;;5032160;28;20026;-81
2023/08/26 04:47:42;;;;;;;9.40;4.10;;;16.70;99.90;;;;;;5031658;28;20013;-82
2023/08/26 04:50:09;;;;;;;9.77;4.57;;;16.70;99.90;;;;;;5031184;28;20034;-82
2023/08/26 04:52:35;;;;;;;9.95;4.47;;;16.70;99.90;;;;;;5048434;28;20053;-81
2023/08/26 04:55:01;;;;;;;7.95;4.10;;;16.70;99.90;;;;;;5031369;28;20029;-82
2023/08/26 04:57:26;;;;;;;9.68;3.92;;;16.70;99.90;;;;;;5047469;28;20485;-82
2023/08/26 04:59:52;;;;;;;12.38;4.13;;;16.60;99.90;;;;;;5031523;28;20032;-82
2023/08/26 05:02:18;;;;;;;9.60;3.88;;;16.70;99.90;;;;;;5031704;28;20028;-81
2023/08/26 05:04:46;;;;;;;13.30;4.07;;;16.60;99.90;;;;;;5030155;28;20033;-81
2023/08/26 05:07:12;;;;;;;11.02;3.78;;;16.60;99.90;;;;;;5031993;28;20028;-81
2023/08/26 05:09:38;;;;;;;6.45;3.17;;;16.60;99.90;;;;;;5033083;28;20029;-81
2023/08/26 05:12:04;;;;;;;11.48;3.47;;;16.50;99.90;;;;;;5030381;28;20047;-82
2023/08/26 05:14:30;;;;;;;9.48;3.42;;;16.50;99.90;;;;;;5031758;28;20063;-81
2023/08/26 05:16:56;;;;;;;8.27;2.90;;;16.40;99.90;;;;;;5031841;28;20488;-82
2023/08/26 05:19:21;;;;;;;11.65;3.28;;;16.40;99.90;;;;;;5030674;28;20031;-82
2023/08/26 05:21:47;;;;;;;7.93;3.00;;;16.40;99.90;;;;;;5030021;28;20503;-81
2023/08/26 05:24:13;;;;;;;7.10;2.90;;;16.40;99.90;;;;;;5031190;28;20033;-82
2023/08/26 05:26:39;;;;;;;7.60;2.80;;;16.30;99.90;;;;;;5031182;28;20017;-82
2023/08/26 05:29:05;;;;;;;6.63;3.10;;;16.30;99.90;;;;;;5028291;28;20026;-81
2023/08/26 05:31:31;;;;;;;7.30;2.55;;;16.30;99.90;;;;;;5028071;28;20034;-82
2023/08/26 05:33:56;;;;;;;12.30;2.65;;;16.40;99.90;;;;;;5026908;28;20038;-82
2023/08/26 05:36:23;;;;;;;4.15;2.42;;;16.30;99.90;;;;;;5026801;28;20514;-81
2023/08/26 05:38:49;;;;;;;4.53;2.30;;;16.20;99.90;;;;;;5036263;28;20079;-82
2023/08/26 05:41:15;;;;;;;4.18;2.20;;;16.20;99.90;;;;;;5029568;28;20391;-81
2023/08/26 05:43:41;;;;;;;7.22;2.65;;;16.20;99.90;;;;;;5031656;28;20075;-81
2023/08/26 05:46:07;;;;;;;8.02;3.30;;;16.20;99.90;;;;;;5031061;28;20026;-81
2023/08/26 05:48:32;;;;;;;6.00;2.35;;;16.20;99.90;;;;;;5031579;28;20026;-81
2023/08/26 05:50:59;;;;;;;5.40;2.38;;;16.20;99.90;;;;;;5030365;28;20021;-82
2023/08/26 05:53:28;;;;;;;5.18;2.13;;;16.30;99.90;;;;;;5031215;28;20032;-82
2023/08/26 05:55:54;;;;;;;7.53;2.65;;;16.30;99.90;;;;;;5032717;28;20025;-81
2023/08/26 05:58:20;;;;;;;8.20;2.63;;;16.30;99.90;;;;;;5031265;28;20026;-83
2023/08/26 06:00:47;;;;;;;4.45;2.58;;;16.30;99.90;;;;;;5030782;28;20028;-81
2023/08/26 06:03:13;;;;;;;4.90;2.30;;;16.30;99.90;;;;;;5031235;28;20029;-82
2023/08/26 06:05:39;;;;;;;9.85;3.45;;;16.20;99.90;;;;;;5031364;28;20017;-81
2023/08/26 06:08:06;;;;;;;8.35;2.45;;;16.10;99.90;;;;;;5031523;28;20026;-81
2023/08/26 06:10:32;;;;;;;6.82;2.50;;;16.10;99.90;;;;;;5029384;28;20034;-81
2023/08/26 06:12:58;;;;;;;5.75;2.67;;;16.10;99.90;;;;;;5031359;28;20035;-82
2023/08/26 06:15:24;;;;;;;8.93;2.40;;;16.20;99.90;;;;;;5032021;28;20392;-81
2023/08/26 06:17:49;;;;;;;4.72;2.33;;;16.30;99.90;;;;;;5031166;28;20112;-82
2023/08/26 06:20:15;;;;;;;6.85;2.80;;;16.30;99.90;;;;;;5030147;28;20112;-82
2023/08/26 06:22:45;;;;;;;7.18;2.35;;;16.20;99.90;;;;;;5032225;28;20025;-82
2023/08/26 06:25:12;;;;;;;4.45;2.45;;;16.20;99.90;;;;;;5027562;28;20025;-82
2023/08/26 06:27:38;;;;;;;5.43;2.47;;;16.30;99.90;;;;;;5031720;28;20123;-81
2023/08/26 06:30:04;;;;;;;7.25;2.30;;;16.30;99.90;;;;;;5019529;28;20014;-81
2023/08/26 06:32:30;;;;;;;4.80;2.13;;;16.30;99.90;;;;;;5030012;28;20387;-82
2023/08/26 06:34:56;;;;;;;7.38;2.13;;;16.30;99.90;;;;;;5034920;28;20071;-82
2023/08/26 06:37:22;;;;;;;4.93;2.20;;;16.30;99.90;;;;;;5051020;28;20109;-82
2023/08/26 06:39:48;;;;;;;5.45;2.20;;;16.20;99.90;;;;;;5049286;28;20633;-82
2023/08/26 06:42:14;;;;;;;5.30;2.55;;;16.30;99.90;;;;;;5035089;28;20034;-81
2023/08/26 06:44:40;;;;;;;5.25;2.00;;;16.40;99.90;;;;;;5051452;28;20021;-83
2023/08/26 06:47:08;;;;;;;8.60;2.10;;;16.40;99.90;;;;;;5052307;28;20433;-81
2023/08/26 06:49:34;;;;;;;5.43;1.98;;;16.40;99.90;;;;;;5049697;28;20026;-82
2023/08/26 06:52:00;;;;;;;4.63;1.70;;;16.30;99.90;;;;;;5028358;28;20488;-81
2023/08/26 06:54:25;;;;;;;4.82;1.92;;;16.40;99.90;;;;;;5017845;28;20025;-81
2023/08/26 06:56:51;;;;;;;4.85;2.13;;;16.30;99.90;;;;;;5030161;28;20518;-82
2023/08/26 06:59:17;;;;;;;8.20;1.83;;;16.50;99.90;;;;;;5014247;28;20032;-82
2023/08/26 07:01:44;;;;;;;4.68;2.00;;;16.60;99.90;;;;;;5014822;28;20029;-81
2023/08/26 07:04:09;;;;;;;4.90;1.90;;;16.50;99.90;;;;;;5015461;28;20041;-82
2023/08/26 07:06:36;;;;;;;3.22;2.00;;;16.60;99.90;;;;;;5016968;28;20034;-81
2023/08/26 07:09:05;;;;;;;5.57;2.05;;;16.60;99.90;;;;;;5030923;28;20022;-82
2023/08/26 07:11:32;;;;;;;6.13;1.77;;;16.70;99.90;;;;;;5030325;28;20038;-81
2023/08/26 07:13:58;;;;;;;7.93;1.80;;;16.70;99.90;;;;;;5031551;28;20034;-81
2023/08/26 07:16:28;;;;;;;6.90;2.03;;;16.80;99.90;;;;;;5050405;28;20041;-82
2023/08/26 07:18:54;;;;;;;8.15;2.15;;;16.80;99.90;;;;;;5039994;28;20099;-82
2023/08/26 07:21:20;;;;;;;4.18;1.95;;;16.90;99.90;;;;;;5034327;28;20667;-81
2023/08/26 07:23:46;;;;;;;3.33;1.73;;;16.90;99.90;;;;;;5032824;28;20032;-82
2023/08/26 07:26:12;;;;;;;6.25;1.98;;;16.90;99.90;;;;;;5035158;28;20451;-82
2023/08/26 07:28:37;;;;;;;3.20;1.70;;;17.00;99.90;;;;;;5033206;28;20048;-82
2023/08/26 07:31:05;;;;;;;5.07;1.52;;;17.00;99.90;;;;;;5033631;28;21609;-82
2023/08/26 07:33:31;;;;;;;9.13;2.20;;;17.10;99.90;;;;;;5033370;28;20472;-81
2023/08/26 07:36:09;;;;;;;6.10;1.55;;;17.10;99.90;;;;;;5032926;28;20035;-81
2023/08/26 07:38:35;;;;;;;4.45;1.77;;;17.10;99.90;;;;;;5023917;28;21611;-82
2023/08/26 07:41:00;;;;;;;6.65;2.13;;;17.10;99.90;;;;;;5033549;28;20032;-81
2023/08/26 07:43:26;;;;;;;5.20;1.92;;;17.20;99.90;;;;;;5032737;28;20145;-82
2023/08/26 07:45:52;;;;;;;6.20;1.75;;;17.30;99.90;;;;;;5028860;28;20501;-82
2023/08/26 07:48:18;;;;;;;8.07;1.88;;;17.40;99.90;;;;;;5030173;28;20057;-81
2023/08/26 07:50:43;;;;;;;5.43;2.03;;;17.40;99.90;;;;;;5033292;28;20056;-81
2023/08/26 07:53:10;;;;;;;6.25;1.85;;;17.60;99.90;;;;;;5033066;28;20029;-82
2023/08/26 07:55:36;;;;;;;9.65;2.20;;;17.70;99.90;;;;;;5029886;28;20022;-81
2023/08/26 07:58:01;;;;;;;4.75;1.73;;;17.80;99.90;;;;;;5021580;28;20108;-81
2023/08/26 08:00:27;;;;;;;8.27;2.35;;;17.90;99.90;;;;;;5023244;28;20662;-82
2023/08/26 08:02:56;;;;;;;2.20;1.45;;;18.00;99.90;;;;;;5028896;28;20028;-83
2023/08/26 08:05:21;;;;;;;7.22;1.55;;;18.10;99.90;;;;;;5033871;28;20021;-82
2023/08/26 08:07:48;;;;;;;5.90;1.70;;;18.20;99.90;;;;;;5035319;28;20026;-81
2023/08/26 08:10:14;;;;;;;3.90;1.67;;;18.30;99.90;;;;;;5042019;28;20024;-83
2023/08/26 08:12:40;;;;;;;3.45;1.67;;;18.30;99.90;;;;;;5037868;28;20034;-83
2023/08/26 08:15:07;;;;;;;6.38;1.77;;;18.40;99.90;;;;;;5036031;28;20018;-83
2023/08/26 08:17:33;;;;;;;4.95;1.67;;;18.40;99.90;;;;;;5035210;28;20025;-82
2023/08/26 08:19:59;;;;;;;4.63;1.40;;;18.50;99.90;;;;;;5026222;28;20034;-81
2023/08/26 08:22:41;;;;;;;5.93;1.58;;;18.50;99.90;;;;;;5050016;28;20022;-81
2023/08/26 08:25:08;;;;;;;5.57;1.85;;;18.60;99.90;;;;;;5027904;28;20017;-82
2023/08/26 08:27:34;;;;;;;3.80;1.33;;;18.60;99.90;;;;;;5019538;28;20022;-81
2023/08/26 08:30:00;;;;;;;6.15;1.67;;;18.70;99.90;;;;;;5016565;28;20021;-81
2023/08/26 08:32:26;;;;;;;3.38;1.25;;;18.80;99.90;;;;;;5031946;28;20068;-82
2023/08/26 08:34:52;;;;;;;4.25;1.33;;;18.80;99.90;;;;;;5048541;28;20120;-82
2023/08/26 08:37:18;;;;;;;5.15;1.20;;;18.90;99.90;;;;;;5031470;28;20025;-81
2023/08/26 08:39:44;;;;;;;6.63;1.17;;;19.10;99.90;;;;;;5031773;28;20079;-82
2023/08/26 08:42:15;;;;;;;2.63;1.10;;;19.20;99.90;;;;;;5031439;28;20120;-81
2023/08/26 08:44:42;;;;;;;2.70;1.10;;;19.20;99.90;;;;;;5031987;28;20034;-82
2023/08/26 08:47:08;;;;;;;4.70;1.25;;;19.20;99.90;;;;;;5028870;28;20499;-82
2023/08/26 08:49:36;;;;;;;4.55;1.15;;;19.30;99.90;;;;;;5021065;28;20037;-81
2023/08/26 08:52:05;;;;;;;4.03;0.93;;;19.50;99.90;;;;;;5017203;28;20028;-80
2023/08/26 08:54:34;;;;;;;4.13;1.45;;;19.60;99.90;;;;;;5031862;28;20037;-82
2023/08/26 08:57:00;;;;;;;3.17;0.98;;;19.80;99.90;;;;;;5031651;28;20033;-81
2023/08/26 08:59:27;;;;;;;3.03;1.02;;;19.90;99.90;;;;;;5032028;28;20116;-81
2023/08/26 09:01:58;;;;;;;3.05;1.00;;;19.90;99.90;;;;;;5032270;28;20155;-81
2023/08/26 09:04:28;;;;;;;3.25;1.20;;;20.00;99.90;;;;;;5032061;28;20029;-81
2023/08/26 09:06:54;;;;;;;2.60;0.98;;;20.10;99.90;;;;;;5031777;28;20091;-81
2023/08/26 09:09:20;;;;;;;5.10;1.15;;;20.20;99.90;;;;;;5031478;28;20380;-81
2023/08/26 09:11:47;;;;;;;4.15;1.00;;;20.40;99.90;;;;;;5031971;28;20014;-82
2023/08/26 09:14:13;;;;;;;3.13;0.90;;;20.40;99.90;;;;;;5031891;28;20124;-81
2023/08/26 09:16:41;;;;;;;3.05;1.35;;;20.50;99.90;;;;;;5032996;28;20108;-81
2023/08/26 09:19:12;;;;;;;5.22;1.20;;;20.60;99.90;;;;;;5031515;28;20034;-80
2023/08/26 09:21:42;;;;;;;4.93;0.85;;;20.60;99.90;;;;;;5031860;28;20022;-81
2023/08/26 09:24:14;;;;;;;2.95;1.20;;;20.50;99.90;;;;;;5031627;28;20033;-81
2023/08/26 09:26:41;;;;;;;2.90;0.82;;;20.40;99.90;;;;;;5031706;28;20014;-81
2023/08/26 09:29:20;;;;;;;2.35;1.10;;;20.50;99.90;;;;;;5031648;28;20030;-81
2023/08/26 09:31:47;;;;;;;2.63;1.25;;;20.70;99.90;;;;;;5030755;28;20029;-81
2023/08/26 09:34:23;;;;;;;3.50;1.10;;;20.80;99.90;;;;;;5031684;28;20467;-81
2023/08/26 09:36:49;;;;;;;4.05;1.05;;;20.90;99.90;;;;;;5031514;28;20025;-81
2023/08/26 09:39:16;;;;;;;6.07;0.90;;;21.10;99.90;;;;;;5031446;28;20025;-81
2023/08/26 09:41:42;;;;;;;2.13;1.13;;;21.10;99.90;;;;;;5031816;28;20454;-81
2023/08/26 09:44:12;;;;;;;2.95;1.02;;;21.20;99.90;;;;;;5031384;28;20037;-81
2023/08/26 09:46:39;;;;;;;2.28;1.08;;;21.20;99.90;;;;;;5031224;28;20028;-81
2023/08/26 09:49:06;;;;;;;2.45;0.80;;;21.50;99.90;;;;;;5030666;28;20501;-81
2023/08/26 09:51:32;;;;;;;1.80;0.98;;;21.60;99.90;;;;;;5032578;28;20041;-81
2023/08/26 09:53:59;;;;;;;6.75;1.17;;;21.50;99.90;;;;;;5031414;28;20120;-80
2023/08/26 09:56:27;;;;;;;4.57;0.90;;;21.60;99.90;;;;;;5027833;28;20120;-81
2023/08/26 09:58:55;;;;;;;3.00;0.93;;;21.70;99.90;;;;;;5012810;28;20045;-81
2023/08/26 10:01:21;;;;;;;2.22;1.15;;;21.80;99.90;;;;;;5012601;28;20030;-81
2023/08/26 10:03:59;;;;;;;2.05;0.90;;;22.00;99.90;;;;;;5012814;28;20543;-81
2023/08/26 10:06:27;;;;;;;1.38;0.90;;;22.10;99.90;;;;;;5011297;28;20025;-81
2023/08/26 10:09:20;;;;;;;2.22;0.90;;;22.20;99.90;;;;;;5012712;28;20160;-82
2023/08/26 10:11:48;;;;;;;3.88;1.13;;;22.20;99.90;;;;;;5022987;28;20034;-81
2023/08/26 10:14:15;;;;;;;1.67;0.82;;;22.20;99.90;;;;;;5015459;28;20037;-81
2023/08/26 10:16:42;;;;;;;1.60;1.10;;;22.20;99.90;;;;;;5021505;28;20048;-81
2023/08/26 10:19:08;;;;;;;1.65;1.10;;;22.30;99.90;;;;;;5034773;28;20099;-81
2023/08/26 10:21:36;;;;;;;4.63;0.85;;;22.20;99.90;;;;;;5036140;28;20041;-80
2023/08/26 10:24:02;;;;;;;2.20;1.20;;;22.60;99.90;;;;;;5034836;28;20017;-81
2023/08/26 10:26:28;;;;;;;3.38;1.23;;;22.80;99.90;;;;;;5034822;28;20029;-80
2023/08/26 10:28:55;;;;;;;3.72;1.02;;;22.70;99.90;;;;;;5034937;28;20109;-81
2023/08/26 10:31:30;;;;;;;3.17;0.80;;;22.80;99.90;;;;;;5034425;28;20038;-81
2023/08/26 10:34:09;;;;;;;2.38;0.77;;;23.00;99.90;;;;;;5034621;28;20028;-81
2023/08/26 10:36:36;;;;;;;2.53;1.05;;;22.80;99.90;;;;;;5034357;28;20399;-81
2023/08/26 10:39:03;;;;;;;4.20;0.88;;;22.90;99.90;;;;;;5034421;28;20029;-81
2023/08/26 10:41:30;;;;;;;3.10;1.10;;;22.70;99.90;;;;;;5033984;28;20021;-81
2023/08/26 10:44:01;;;;;;;5.03;1.33;;;22.60;99.90;;;;;;5034435;28;20558;-81
2023/08/26 10:46:56;;;;;;;2.40;1.20;;;22.50;99.90;;;;;;5035571;28;20567;-81
2023/08/26 10:49:31;;;;;;;1.23;0.80;;;22.40;99.90;;;;;;5035274;28;20109;-81
2023/08/26 10:52:14;;;;;;;3.00;1.23;;;22.50;99.90;;;;;;5035329;28;20028;-80
2023/08/26 10:54:42;;;;;;;1.52;0.90;;;22.70;99.90;;;;;;5032892;28;20526;-81
2023/08/26 10:57:08;;;;;;;2.78;0.95;;;22.70;99.90;;;;;;5028287;28;20243;-81
2023/08/26 10:59:36;;;;;;;1.85;1.25;;;23.10;99.90;;;;;;5033163;28;20519;-77
2023/08/26 11:02:06;;;;;;;3.65;1.10;;;23.00;99.90;;;;;;5020898;28;20046;-80
2023/08/26 11:04:32;;;;;;;1.92;0.88;;;22.80;99.90;;;;;;5032513;28;20025;-80
2023/08/26 11:06:58;;;;;;;1.77;0.80;;;22.80;99.90;;;;;;5050686;28;20030;-80
2023/08/26 11:09:24;;;;;;;2.15;1.17;;;22.80;99.90;;;;;;5033021;28;20112;-80
2023/08/26 11:11:50;;;;;;;1.30;1.00;;;22.90;99.90;;;;;;5032378;28;20116;-80
2023/08/26 11:14:16;;;;;;;3.03;0.88;;;23.10;99.90;;;;;;5034278;28;20025;-80
2023/08/26 11:16:41;;;;;;;2.83;1.10;;;23.00;99.90;;;;;;5042248;28;20132;-80
2023/08/26 11:19:08;;;;;;;3.60;1.40;;;22.70;99.90;;;;;;5034189;28;20025;-80
2023/08/26 11:21:38;;;;;;;3.40;1.20;;;22.50;99.90;;;;;;5034810;28;20027;-80
2023/08/26 11:24:04;;;;;;;4.28;1.25;;;22.50;99.90;;;;;;5029869;28;20037;-80
2023/08/26 11:26:30;;;;;;;2.95;1.10;;;22.50;99.90;;;;;;5030255;28;20022;-80
2023/08/26 11:29:00;;;;;;;4.15;1.13;;;22.40;99.90;;;;;;5032324;28;20067;-80
2023/08/26 11:31:26;;;;;;;2.97;1.15;;;22.40;99.90;;;;;;5033729;28;20040;-79
2023/08/26 11:33:52;;;;;;;3.40;1.25;;;22.40;99.90;;;;;;5050114;28;20021;-80
2023/08/26 11:36:22;;;;;;;2.28;1.15;;;22.60;99.90;;;;;;5034999;28;20036;-80
2023/08/26 11:38:48;;;;;;;4.38;1.05;;;22.60;99.90;;;;;;5032836;28;20021;-80
2023/08/26 11:41:14;;;;;;;3.72;0.90;;;22.80;99.90;;;;;;5029789;28;20125;-80
2023/08/26 11:43:39;;;;;;;1.73;0.93;;;23.10;99.90;;;;;;5014744;28;20045;-80
2023/08/26 11:46:06;;;;;;;3.80;1.23;;;23.20;99.90;;;;;;5013536;28;20088;-80
2023/08/26 11:48:36;;;;;;;2.00;0.77;;;23.10;99.90;;;;;;5012827;28;20037;-81
2023/08/26 11:51:03;;;;;;;2.88;0.93;;;23.20;99.90;;;;;;5012950;28;20045;-80
2023/08/26 11:53:29;;;;;;;2.80;0.90;;;23.60;99.90;;;;;;5013309;28;20427;-80
2023/08/26 11:55:55;;;;;;;2.20;1.02;;;23.80;99.90;;;;;;5018347;28;20072;-80
2023/08/26 11:58:21;;;;;;;2.42;1.00;;;23.80;99.90;;;;;;5038490;28;20018;-80
2023/08/26 12:00:48;;;;;;;4.57;1.20;;;24.00;99.90;;;;;;5034000;28;20569;-80
2023/08/26 12:03:13;;;;;;;3.45;0.93;;;23.80;99.90;;;;;;5034181;28;20022;-81
2023/08/26 12:06:07;;;;;;;4.03;1.50;;;24.10;99.90;;;;;;5034345;28;20029;-80
2023/08/26 12:08:33;;;;;;;2.70;1.20;;;24.10;99.90;;;;;;5032157;28;20092;-80
2023/08/26 12:10:59;;;;;;;1.85;0.85;;;24.10;99.90;;;;;;5034527;28;20462;-79
2023/08/26 12:13:37;;;;;;;3.38;0.80;;;24.00;99.90;;;;;;5032348;28;20076;-80
2023/08/26 12:16:03;;;;;;;2.80;0.98;;;24.10;99.90;;;;;;5033130;28;20026;-80
2023/08/26 12:18:29;;;;;;;2.78;1.00;;;24.10;99.90;;;;;;5032867;28;20549;-80
2023/08/26 12:20:54;;;;;;;2.35;0.90;;;24.10;99.90;;;;;;5049523;28;20021;-80
2023/08/26 12:23:21;;;;;;;2.53;1.08;;;24.10;99.90;;;;;;5032228;28;20025;-80
2023/08/26 12:25:47;;;;;;;3.22;1.02;;;24.20;99.90;;;;;;5033992;28;20411;-80
2023/08/26 12:28:26;;;;;;;3.15;0.93;;;24.00;99.90;;;;;;5028813;28;20018;-80
2023/08/26 12:30:52;;;;;;;2.10;0.88;;;23.90;99.90;;;;;;5012599;28;20033;-80
2023/08/26 12:33:18;;;;;;;3.80;0.93;;;23.80;99.90;;;;;;5013771;28;20030;-80
2023/08/26 12:35:45;;;;;;;2.78;0.65;;;23.60;99.90;;;;;;5013924;28;20037;-80
2023/08/26 12:38:11;;;;;;;1.67;0.90;;;23.30;99.90;;;;;;5013912;28;20025;-81
2023/08/26 12:40:40;;;;;;;4.05;0.90;;;23.70;99.90;;;;;;5023792;28;20423;-80
2023/08/26 12:43:06;;;;;;;1.70;0.77;;;23.70;99.90;;;;;;5033375;28;20029;-80
2023/08/26 12:45:33;;;;;;;2.70;0.70;;;23.50;99.90;;;;;;5033601;28;20036;-80